createdAt,value
2016-07-14T00:00:34.292Z,23.54
2016-07-14T00:01:34.297Z,23.5
2016-07-14T00:02:32.887Z,23.51
2016-07-14T00:03:32.902Z,23.36
2016-07-14T00:04:34.148Z,23.36
2016-07-14T00:05:33.603Z,23.39
2016-07-14T00:06:33.763Z,23.19
2016-07-14T00:07:34.318Z,23.33
2016-07-14T00:08:33.615Z,23.4
2016-07-14T00:09:33.621Z,23.43
2016-07-14T00:10:34.330Z,23.46
2016-07-14T00:11:33.628Z,23.4
2016-07-14T00:12:34.337Z,23.51
2016-07-14T00:13:34.344Z,23.47
2016-07-14T00:14:33.645Z,23.51
2016-07-14T00:15:35.150Z,23.46
2016-07-14T00:16:33.648Z,23.39
2016-07-14T00:17:34.363Z,23.43
2016-07-14T00:18:34.360Z,23.28
2016-07-14T00:19:32.959Z,23.32
2016-07-14T00:20:33.661Z,23.42
2016-07-14T00:21:33.667Z,23.48
2016-07-14T00:22:33.667Z,23.65
2016-07-14T00:23:32.966Z,23.58
2016-07-14T00:24:32.990Z,23.39
2016-07-14T00:25:33.677Z,23.31
2016-07-14T00:26:35.500Z,23.39
2016-07-14T00:27:32.981Z,23.54
2016-07-14T00:28:33.892Z,23.66
2016-07-14T00:29:33.695Z,23.69
2016-07-14T00:30:32.991Z,23.87
2016-07-14T00:31:34.414Z,23.57
2016-07-14T00:32:33.714Z,23.57
2016-07-14T00:33:34.421Z,23.53
2016-07-14T00:34:33.728Z,23.43
2016-07-14T00:35:33.734Z,23.51
2016-07-14T00:36:33.725Z,23.57
2016-07-14T00:37:33.023Z,23.51
2016-07-14T00:38:34.441Z,23.55
2016-07-14T00:39:35.153Z,23.46
2016-07-14T00:40:33.741Z,23.42
2016-07-14T00:41:33.747Z,23.48
2016-07-14T00:42:33.751Z,23.46
2016-07-14T00:43:33.045Z,23.31
2016-07-14T00:44:33.768Z,23.19
2016-07-14T00:45:33.765Z,23.28
2016-07-14T00:46:33.411Z,23.31
2016-07-14T00:47:33.764Z,23.16
2016-07-14T00:48:33.771Z,23.19
2016-07-14T00:49:34.482Z,23.17
2016-07-14T00:50:34.878Z,23.19
2016-07-14T00:51:33.837Z,23.23
2016-07-14T00:52:34.492Z,23.15
2016-07-14T00:53:33.791Z,23.16
2016-07-14T00:54:33.094Z,22.98
2016-07-14T00:55:33.092Z,23.13
2016-07-14T00:56:33.096Z,23.13
2016-07-14T00:57:35.318Z,23.16
2016-07-14T00:58:33.805Z,23.22
2016-07-14T00:59:33.604Z,23.31
2016-07-14T01:00:33.817Z,23.43
2016-07-14T01:01:35.377Z,23.42
2016-07-14T01:02:33.116Z,23.17
2016-07-14T01:03:33.827Z,23.22
2016-07-14T01:04:33.837Z,23.32
2016-07-14T01:05:34.536Z,23.27
2016-07-14T01:06:33.839Z,23.15
2016-07-14T01:07:34.560Z,23.27
2016-07-14T01:08:34.937Z,23.19
2016-07-14T01:09:33.849Z,23.28
2016-07-14T01:10:34.050Z,23.25
2016-07-14T01:11:33.857Z,23.42
2016-07-14T01:12:34.574Z,23.57
2016-07-14T01:13:34.573Z,23.54
2016-07-14T01:14:33.163Z,23.47
2016-07-14T01:15:33.871Z,23.13
2016-07-14T01:16:34.583Z,23.2
2016-07-14T01:17:34.584Z,23.28
2016-07-14T01:18:33.883Z,23.2
2016-07-14T01:19:35.477Z,23.1
2016-07-14T01:20:33.889Z,23.2
2016-07-14T01:21:34.494Z,23.23
2016-07-14T01:22:33.190Z,23.32
2016-07-14T01:23:34.301Z,23.28
2016-07-14T01:24:33.903Z,23.17
2016-07-14T01:25:33.908Z,23.13
2016-07-14T01:26:34.620Z,22.98
2016-07-14T01:27:33.915Z,23.05
2016-07-14T01:28:34.627Z,23.25
2016-07-14T01:29:34.630Z,23.32
2016-07-14T01:30:33.929Z,23.32
2016-07-14T01:31:34.637Z,23.35
2016-07-14T01:32:33.238Z,23.38
2016-07-14T01:33:33.939Z,23.4
2016-07-14T01:34:34.791Z,23.39
2016-07-14T01:35:33.947Z,23.25
2016-07-14T01:36:33.949Z,23.15
2016-07-14T01:37:33.955Z,23.35
2016-07-14T01:38:34.007Z,23.33
2016-07-14T01:39:33.963Z,23.15
2016-07-14T01:40:33.264Z,23.23
2016-07-14T01:41:34.520Z,23.22
2016-07-14T01:42:33.972Z,23.23
2016-07-14T01:43:33.974Z,23.17
2016-07-14T01:44:34.691Z,23.19
2016-07-14T01:45:33.982Z,23.22
2016-07-14T01:46:33.283Z,23.16
2016-07-14T01:47:33.996Z,23.07
2016-07-14T01:48:34.703Z,23.12
2016-07-14T01:49:34.705Z,23.28
2016-07-14T01:50:34.711Z,23.32
2016-07-14T01:51:34.717Z,23.36
2016-07-14T01:52:34.253Z,23.42
2016-07-14T01:53:34.017Z,23.46
2016-07-14T01:54:34.022Z,23.33
2016-07-14T01:55:33.323Z,23.48
2016-07-14T01:56:34.079Z,23.54
2016-07-14T01:57:34.738Z,23.32
2016-07-14T01:58:34.745Z,23.4
2016-07-14T01:59:34.796Z,23.2
2016-07-14T02:00:33.336Z,23.2
2016-07-14T02:01:34.757Z,23.17
2016-07-14T02:02:34.054Z,23.13
2016-07-14T02:03:35.011Z,23.23
2016-07-14T02:04:34.061Z,23.39
2016-07-14T02:05:34.870Z,23.39
2016-07-14T02:06:34.071Z,23.6
2016-07-14T02:07:34.071Z,23.48
2016-07-14T02:08:34.080Z,23.4
2016-07-14T02:09:33.377Z,23.32
2016-07-14T02:10:34.796Z,23.32
2016-07-14T02:11:34.092Z,23.16
2016-07-14T02:12:34.802Z,23.12
2016-07-14T02:13:34.101Z,23.04
2016-07-14T02:14:34.104Z,23.17
2016-07-14T02:15:34.113Z,23.51
2016-07-14T02:16:34.163Z,23.51
2016-07-14T02:17:34.823Z,23.6
2016-07-14T02:18:34.119Z,23.57
2016-07-14T02:19:34.832Z,23.63
2016-07-14T02:20:34.131Z,23.75
2016-07-14T02:21:34.840Z,23.85
2016-07-14T02:22:33.431Z,23.9
2016-07-14T02:23:33.439Z,23.69
2016-07-14T02:24:33.439Z,23.51
2016-07-14T02:25:34.961Z,23.61
2016-07-14T02:26:34.156Z,23.7
2016-07-14T02:27:36.194Z,23.55
2016-07-14T02:28:33.459Z,23.58
2016-07-14T02:29:34.171Z,23.65
2016-07-14T02:30:34.890Z,23.54
2016-07-14T02:31:34.179Z,23.65
2016-07-14T02:32:33.480Z,23.63
2016-07-14T02:33:34.900Z,23.32
2016-07-14T02:34:33.489Z,23.33
2016-07-14T02:35:34.904Z,23.32
2016-07-14T02:36:34.703Z,23.38
2016-07-14T02:37:34.208Z,23.32
2016-07-14T02:38:34.918Z,23.31
2016-07-14T02:39:33.511Z,23.46
2016-07-14T02:40:34.221Z,23.38
2016-07-14T02:41:34.229Z,23.36
2016-07-14T02:42:34.936Z,23.32
2016-07-14T02:43:34.233Z,23.27
2016-07-14T02:44:34.946Z,23.25
2016-07-14T02:45:34.244Z,23.22
2016-07-14T02:46:34.953Z,23.23
2016-07-14T02:47:36.078Z,23.15
2016-07-14T02:48:34.257Z,23.23
2016-07-14T02:49:35.014Z,23.13
2016-07-14T02:50:34.975Z,23.04
2016-07-14T02:51:34.975Z,22.9
2016-07-14T02:52:34.979Z,22.9
2016-07-14T02:53:34.978Z,22.83
2016-07-14T02:54:34.276Z,22.77
2016-07-14T02:55:33.571Z,22.86
2016-07-14T02:56:34.991Z,22.86
2016-07-14T02:57:34.286Z,22.91
2016-07-14T02:58:33.586Z,22.92
2016-07-14T02:59:34.293Z,23
2016-07-14T03:00:35.099Z,23.01
2016-07-14T03:01:34.303Z,23.16
2016-07-14T03:02:34.301Z,23.04
2016-07-14T03:03:34.305Z,23.09
2016-07-14T03:04:35.019Z,23.35
2016-07-14T03:05:35.020Z,23.25
2016-07-14T03:06:34.320Z,23.13
2016-07-14T03:07:35.028Z,23.35
2016-07-14T03:08:35.036Z,23.35
2016-07-14T03:09:34.327Z,23.32
2016-07-14T03:10:34.335Z,23.16
2016-07-14T03:11:35.609Z,23.19
2016-07-14T03:12:35.049Z,23.32
2016-07-14T03:13:33.641Z,23.19
2016-07-14T03:14:35.058Z,23.33
2016-07-14T03:15:35.063Z,23.1
2016-07-14T03:16:34.361Z,23.16
2016-07-14T03:17:35.077Z,23.04
2016-07-14T03:18:34.365Z,23.12
2016-07-14T03:19:34.371Z,23.15
2016-07-14T03:20:35.176Z,23.16
2016-07-14T03:21:34.380Z,23.17
2016-07-14T03:22:34.277Z,23.01
2016-07-14T03:23:34.387Z,23.16
2016-07-14T03:24:33.682Z,23.19
2016-07-14T03:25:35.102Z,23.53
2016-07-14T03:26:33.691Z,23.5
2016-07-14T03:27:35.113Z,23.32
2016-07-14T03:28:34.410Z,23.31
2016-07-14T03:29:33.712Z,23.4
2016-07-14T03:30:33.711Z,23.54
2016-07-14T03:31:34.927Z,23.58
2016-07-14T03:32:34.427Z,23.4
2016-07-14T03:33:34.981Z,23.33
2016-07-14T03:34:33.727Z,23.31
2016-07-14T03:35:35.147Z,23.28
2016-07-14T03:36:35.150Z,23.28
2016-07-14T03:37:34.451Z,23.19
2016-07-14T03:38:34.461Z,23.42
2016-07-14T03:39:34.459Z,23.46
2016-07-14T03:40:35.171Z,23.51
2016-07-14T03:41:34.468Z,23.55
2016-07-14T03:42:35.927Z,23.36
2016-07-14T03:43:34.477Z,23.48
2016-07-14T03:44:36.317Z,23.4
2016-07-14T03:45:33.778Z,23.31
2016-07-14T03:46:33.781Z,23.4
2016-07-14T03:47:35.203Z,23.42
2016-07-14T03:48:34.551Z,23.48
2016-07-14T03:49:34.502Z,23.38
2016-07-14T03:50:35.218Z,23.5
2016-07-14T03:51:34.509Z,23.57
2016-07-14T03:52:34.518Z,23.57
2016-07-14T03:53:36.205Z,23.55
2016-07-14T03:54:34.525Z,23.65
2016-07-14T03:55:33.826Z,23.57
2016-07-14T03:56:33.830Z,23.63
2016-07-14T03:57:34.543Z,23.58
2016-07-14T03:58:35.316Z,23.61
2016-07-14T03:59:34.552Z,23.53
2016-07-14T04:00:33.850Z,23.28
2016-07-14T04:01:35.267Z,23.39
2016-07-14T04:02:34.566Z,23.54
2016-07-14T04:03:35.275Z,23.54
2016-07-14T04:04:34.576Z,23.48
2016-07-14T04:05:34.581Z,23.66
2016-07-14T04:06:36.330Z,23.76
2016-07-14T04:07:33.886Z,23.73
2016-07-14T04:08:34.596Z,23.66
2016-07-14T04:09:34.600Z,23.55
2016-07-14T04:10:34.607Z,23.61
2016-07-14T04:11:34.610Z,23.73
2016-07-14T04:12:35.340Z,23.78
2016-07-14T04:13:34.623Z,23.57
2016-07-14T04:14:33.916Z,23.4
2016-07-14T04:15:35.996Z,23.48
2016-07-14T04:16:34.637Z,23.48
2016-07-14T04:17:34.642Z,23.4
2016-07-14T04:18:33.938Z,23.42
2016-07-14T04:19:34.649Z,23.42
2016-07-14T04:20:35.362Z,23.53
2016-07-14T04:21:34.661Z,23.65
2016-07-14T04:22:34.668Z,23.69
2016-07-14T04:23:35.376Z,23.58
2016-07-14T04:24:34.672Z,23.76
2016-07-14T04:25:33.976Z,23.76
2016-07-14T04:26:35.785Z,23.7
2016-07-14T04:27:33.986Z,23.75
2016-07-14T04:28:35.448Z,23.7
2016-07-14T04:29:34.749Z,23.69
2016-07-14T04:30:34.704Z,23.76
2016-07-14T04:31:34.708Z,23.51
2016-07-14T04:32:34.021Z,23.7
2016-07-14T04:33:35.427Z,23.65
2016-07-14T04:34:34.725Z,23.73
2016-07-14T04:35:34.731Z,23.79
2016-07-14T04:36:34.026Z,23.78
2016-07-14T04:37:34.030Z,23.88
2016-07-14T04:38:35.452Z,23.9
2016-07-14T04:39:34.040Z,23.87
2016-07-14T04:40:34.758Z,23.78
2016-07-14T04:41:34.762Z,23.7
2016-07-14T04:42:35.474Z,23.63
2016-07-14T04:43:35.476Z,23.69
2016-07-14T04:44:35.482Z,23.75
2016-07-14T04:45:34.077Z,23.78
2016-07-14T04:46:35.387Z,23.83
2016-07-14T04:47:35.509Z,23.7
2016-07-14T04:48:34.337Z,23.75
2016-07-14T04:49:34.799Z,23.63
2016-07-14T04:50:34.100Z,23.66
2016-07-14T04:51:34.810Z,23.79
2016-07-14T04:52:35.525Z,23.93
2016-07-14T04:53:34.115Z,23.75
2016-07-14T04:54:34.827Z,23.88
2016-07-14T04:55:34.125Z,23.79
2016-07-14T04:56:35.542Z,23.73
2016-07-14T04:57:35.853Z,23.75
2016-07-14T04:58:34.847Z,23.66
2016-07-14T04:59:35.502Z,23.68
2016-07-14T05:00:34.865Z,23.83
2016-07-14T05:01:34.452Z,23.97
2016-07-14T05:02:34.867Z,23.8
2016-07-14T05:03:35.585Z,24
2016-07-14T05:04:34.874Z,23.97
2016-07-14T05:05:35.588Z,24.21
2016-07-14T05:06:34.886Z,24.34
2016-07-14T05:07:34.892Z,24.34
2016-07-14T05:08:36.023Z,24.45
2016-07-14T05:09:34.908Z,24.53
2016-07-14T05:10:35.867Z,24.53
2016-07-14T05:11:34.208Z,24.6
2016-07-14T05:12:34.979Z,24.65
2016-07-14T05:13:34.223Z,24.69
2016-07-14T05:14:35.640Z,24.76
2016-07-14T05:15:35.648Z,24.8
2016-07-14T05:16:35.653Z,24.8
2016-07-14T05:17:35.659Z,24.62
2016-07-14T05:18:35.669Z,24.45
2016-07-14T05:19:34.971Z,24.68
2016-07-14T05:20:35.680Z,24.81
2016-07-14T05:21:36.640Z,24.84
2016-07-14T05:22:35.694Z,24.91
2016-07-14T05:23:35.699Z,24.84
2016-07-14T05:24:35.707Z,24.9
2016-07-14T05:25:35.013Z,24.96
2016-07-14T05:26:35.722Z,25.02
2016-07-14T05:27:35.726Z,24.96
2016-07-14T05:28:35.025Z,25.03
2016-07-14T05:29:35.037Z,25.09
2016-07-14T05:30:35.191Z,25.2
2016-07-14T05:31:35.758Z,25.23
2016-07-14T05:32:36.028Z,25.18
2016-07-14T05:33:35.067Z,25.15
2016-07-14T05:34:35.974Z,25.2
2016-07-14T05:35:35.785Z,25.24
2016-07-14T05:36:35.092Z,25.24
2016-07-14T05:37:34.387Z,25.27
2016-07-14T05:38:35.808Z,25.2
2016-07-14T05:39:35.111Z,25.14
2016-07-14T05:40:35.116Z,25.18
2016-07-14T05:41:35.067Z,25.21
2016-07-14T05:42:35.841Z,25.08
2016-07-14T05:43:36.828Z,25.28
2016-07-14T05:44:34.443Z,25.3
2016-07-14T05:45:35.155Z,25.43
2016-07-14T05:46:35.871Z,25.47
2016-07-14T05:47:35.174Z,25.58
2016-07-14T05:48:35.884Z,25.47
2016-07-14T05:49:35.189Z,25.57
2016-07-14T05:50:35.904Z,25.58
2016-07-14T05:51:35.207Z,25.51
2016-07-14T05:52:36.265Z,25.65
2016-07-14T05:53:35.929Z,25.67
2016-07-14T05:54:35.236Z,25.64
2016-07-14T05:55:35.239Z,25.72
2016-07-14T05:56:37.037Z,25.79
2016-07-14T05:57:35.260Z,25.85
2016-07-14T05:58:35.267Z,25.85
2016-07-14T05:59:35.277Z,25.88
2016-07-14T06:00:35.283Z,25.73
2016-07-14T06:01:35.293Z,25.88
2016-07-14T06:02:36.009Z,25.9
2016-07-14T06:03:36.817Z,26.02
2016-07-14T06:04:36.030Z,25.91
2016-07-14T06:05:35.927Z,25.73
2016-07-14T06:06:35.339Z,25.83
2016-07-14T06:07:35.350Z,25.55
2016-07-14T06:08:36.066Z,25.58
2016-07-14T06:09:35.365Z,25.82
2016-07-14T06:10:35.374Z,25.79
2016-07-14T06:11:35.382Z,25.83
2016-07-14T06:12:35.392Z,26.05
2016-07-14T06:13:36.108Z,26.05
2016-07-14T06:14:36.877Z,25.87
2016-07-14T06:15:34.710Z,25.85
2016-07-14T06:16:37.234Z,25.76
2016-07-14T06:17:36.137Z,25.85
2016-07-14T06:18:35.442Z,25.87
2016-07-14T06:19:34.747Z,25.9
2016-07-14T06:20:34.752Z,25.98
2016-07-14T06:21:36.174Z,26.2
2016-07-14T06:22:35.475Z,26.15
2016-07-14T06:23:35.487Z,26.09
2016-07-14T06:24:35.491Z,26.21
2016-07-14T06:25:35.503Z,26.36
2016-07-14T06:26:36.217Z,26.35
2016-07-14T06:27:37.039Z,26.39
2016-07-14T06:28:35.523Z,26.33
2016-07-14T06:29:35.536Z,26.17
2016-07-14T06:30:35.544Z,26.48
2016-07-14T06:31:34.845Z,26.6
2016-07-14T06:32:36.268Z,26.5
2016-07-14T06:33:35.568Z,26.63
2016-07-14T06:34:36.286Z,26.66
2016-07-14T06:35:34.881Z,26.77
2016-07-14T06:36:35.695Z,26.76
2016-07-14T06:37:35.607Z,26.81
2016-07-14T06:38:35.616Z,26.84
2016-07-14T06:39:35.629Z,26.85
2016-07-14T06:40:36.341Z,26.82
2016-07-14T06:41:35.647Z,26.77
2016-07-14T06:42:35.654Z,26.47
2016-07-14T06:43:35.723Z,26.47
2016-07-14T06:44:36.376Z,26.72
2016-07-14T06:45:36.385Z,26.51
2016-07-14T06:46:34.991Z,26.35
2016-07-14T06:47:36.296Z,26.05
2016-07-14T06:48:35.707Z,25.97
2016-07-14T06:49:35.710Z,26.35
2016-07-14T06:50:35.721Z,26.37
2016-07-14T06:51:36.438Z,26.63
2016-07-14T06:52:35.028Z,26.81
2016-07-14T06:53:35.746Z,26.84
2016-07-14T06:54:36.463Z,26.85
2016-07-14T06:55:35.054Z,27
2016-07-14T06:56:35.066Z,26.72
2016-07-14T06:57:36.486Z,26.4
2016-07-14T06:58:37.345Z,26.05
2016-07-14T06:59:35.094Z,26.13
2016-07-14T07:00:36.354Z,25.87
2016-07-14T07:01:35.861Z,25.65
2016-07-14T07:02:35.200Z,25.75
2016-07-14T07:03:35.836Z,26.32
2016-07-14T07:04:35.132Z,26.37
2016-07-14T07:05:35.133Z,26.33
2016-07-14T07:06:35.850Z,26.3
2016-07-14T07:07:36.566Z,26.62
2016-07-14T07:08:35.865Z,26.48
2016-07-14T07:09:37.663Z,26.28
2016-07-14T07:10:35.173Z,26.18
2016-07-14T07:11:36.743Z,26.25
2016-07-14T07:12:35.894Z,26.09
2016-07-14T07:13:35.199Z,26.06
2016-07-14T07:14:36.620Z,26.01
2016-07-14T07:15:35.917Z,26.1
2016-07-14T07:16:35.928Z,26.25
2016-07-14T07:17:35.227Z,26.43
2016-07-14T07:18:35.938Z,26.12
2016-07-14T07:19:36.656Z,25.8
2016-07-14T07:20:35.954Z,25.8
2016-07-14T07:21:36.673Z,25.82
2016-07-14T07:22:36.422Z,25.82
2016-07-14T07:23:35.975Z,25.85
2016-07-14T07:24:35.985Z,25.65
2016-07-14T07:25:36.697Z,25.97
2016-07-14T07:26:35.995Z,26.36
2016-07-14T07:27:36.713Z,26.62
2016-07-14T07:28:36.014Z,26.47
2016-07-14T07:29:36.024Z,26.48
2016-07-14T07:30:36.735Z,25.76
2016-07-14T07:31:36.742Z,25.88
2016-07-14T07:32:36.055Z,26.13
2016-07-14T07:33:37.905Z,26.35
2016-07-14T07:34:36.105Z,26.58
2016-07-14T07:35:36.773Z,26.76
2016-07-14T07:36:36.071Z,26.84
2016-07-14T07:37:35.375Z,26.69
2016-07-14T07:38:36.096Z,26.67
2016-07-14T07:39:36.106Z,26.55
2016-07-14T07:40:35.398Z,26.75
2016-07-14T07:41:36.116Z,26.77
2016-07-14T07:42:36.831Z,26.8
2016-07-14T07:43:36.838Z,26.85
2016-07-14T07:44:35.685Z,26.72
2016-07-14T07:45:36.150Z,26.01
2016-07-14T07:46:36.867Z,25.87
2016-07-14T07:47:36.874Z,25.77
2016-07-14T07:48:36.175Z,25.67
2016-07-14T07:49:36.890Z,25.73
2016-07-14T07:50:36.896Z,25.4
2016-07-14T07:51:36.912Z,25.45
2016-07-14T07:52:36.199Z,25.33
2016-07-14T07:53:36.403Z,25.6
2016-07-14T07:54:36.213Z,25.51
2016-07-14T07:55:36.224Z,25.72
2016-07-14T07:56:35.528Z,25.73
2016-07-14T07:57:36.231Z,25.69
2016-07-14T07:58:36.237Z,25.77
2016-07-14T07:59:35.545Z,25.98
2016-07-14T08:00:36.251Z,25.69
2016-07-14T08:01:36.308Z,25.77
2016-07-14T08:02:35.555Z,25.67
2016-07-14T08:03:36.267Z,25.76
2016-07-14T08:04:37.332Z,26.01
2016-07-14T08:05:35.572Z,26.05
2016-07-14T08:06:36.283Z,26.25
2016-07-14T08:07:36.291Z,26.28
2016-07-14T08:08:35.588Z,26.15
2016-07-14T08:09:35.599Z,26.06
2016-07-14T08:10:36.308Z,25.87
2016-07-14T08:11:36.313Z,25.85
2016-07-14T08:12:36.319Z,25.77
2016-07-14T08:13:35.620Z,25.72
2016-07-14T08:14:36.333Z,25.82
2016-07-14T08:15:36.936Z,25.76
2016-07-14T08:16:37.052Z,25.75
2016-07-14T08:17:38.278Z,25.7
2016-07-14T08:18:36.357Z,25.67
2016-07-14T08:19:37.075Z,25.58
2016-07-14T08:20:36.368Z,25.42
2016-07-14T08:21:37.080Z,25.27
2016-07-14T08:22:37.087Z,24.91
2016-07-14T08:23:37.091Z,25.09
2016-07-14T08:24:36.394Z,25.28
2016-07-14T08:25:37.106Z,25.42
2016-07-14T08:26:37.050Z,25.46
2016-07-14T08:27:35.700Z,25.51
2016-07-14T08:28:38.251Z,25.54
2016-07-14T08:29:36.420Z,25.43
2016-07-14T08:30:36.825Z,25.51
2016-07-14T08:31:37.133Z,25.33
2016-07-14T08:32:35.727Z,25.24
2016-07-14T08:33:36.442Z,25.27
2016-07-14T08:34:36.444Z,25.39
2016-07-14T08:35:36.450Z,25.18
2016-07-14T08:36:36.452Z,25.09
2016-07-14T08:37:35.955Z,25.03
2016-07-14T08:38:36.471Z,25.08
2016-07-14T08:39:35.767Z,25.2
2016-07-14T08:40:35.771Z,25.24
2016-07-14T08:41:36.483Z,25.38
2016-07-14T08:42:37.192Z,25.42
2016-07-14T08:43:36.493Z,25.52
2016-07-14T08:44:37.203Z,25.47
2016-07-14T08:45:36.503Z,25.36
2016-07-14T08:46:37.215Z,25.39
2016-07-14T08:47:36.517Z,25.23
2016-07-14T08:48:37.228Z,25.3
2016-07-14T08:49:35.823Z,25.36
2016-07-14T08:50:37.987Z,25.21
2016-07-14T08:51:36.538Z,24.93
2016-07-14T08:52:37.295Z,25.08
2016-07-14T08:53:37.253Z,25.17
2016-07-14T08:54:35.844Z,25.21
2016-07-14T08:55:37.260Z,25.25
2016-07-14T08:56:37.269Z,25.38
2016-07-14T08:57:36.570Z,25.28
2016-07-14T08:58:37.276Z,25.38
2016-07-14T08:59:36.578Z,25.43
2016-07-14T09:00:37.285Z,25.45
2016-07-14T09:01:37.903Z,25.33
2016-07-14T09:02:37.361Z,25.36
2016-07-14T09:03:37.046Z,25.35
2016-07-14T09:04:37.313Z,25.45
2016-07-14T09:05:36.611Z,25.45
2016-07-14T09:06:35.909Z,25.39
2016-07-14T09:07:37.329Z,25.43
2016-07-14T09:08:36.626Z,25.23
2016-07-14T09:09:35.927Z,25.33
2016-07-14T09:10:36.636Z,25.35
2016-07-14T09:11:36.692Z,25.42
2016-07-14T09:12:37.954Z,25.45
2016-07-14T09:13:37.360Z,25.13
2016-07-14T09:14:36.662Z,25.03
2016-07-14T09:15:36.662Z,24.98
2016-07-14T09:16:36.672Z,24.9
2016-07-14T09:17:36.679Z,24.83
2016-07-14T09:18:36.677Z,25.02
2016-07-14T09:19:35.977Z,25.2
2016-07-14T09:20:36.693Z,25.15
2016-07-14T09:21:36.694Z,25.24
2016-07-14T09:22:36.699Z,25.28
2016-07-14T09:23:37.455Z,25.18
2016-07-14T09:24:36.712Z,25.13
2016-07-14T09:25:36.018Z,25.39
2016-07-14T09:26:36.720Z,25.46
2016-07-14T09:27:37.323Z,25.33
2016-07-14T09:28:36.732Z,25.24
2016-07-14T09:29:36.941Z,25.13
2016-07-14T09:30:36.739Z,25.17
2016-07-14T09:31:36.745Z,25.21
2016-07-14T09:32:36.755Z,25.15
2016-07-14T09:33:37.464Z,25.1
2016-07-14T09:34:36.058Z,25.21
2016-07-14T09:35:36.767Z,25.09
2016-07-14T09:36:36.218Z,25.17
2016-07-14T09:37:36.777Z,25.15
2016-07-14T09:38:37.541Z,25.18
2016-07-14T09:39:37.507Z,25.17
2016-07-14T09:40:36.792Z,25.1
2016-07-14T09:41:36.800Z,25.06
2016-07-14T09:42:36.095Z,25.08
2016-07-14T09:43:37.519Z,25.1
2016-07-14T09:44:37.532Z,25.2
2016-07-14T09:45:36.108Z,25.23
2016-07-14T09:46:36.823Z,25.1
2016-07-14T09:47:36.119Z,25.32
2016-07-14T09:48:36.887Z,25.35
2016-07-14T09:49:36.734Z,25.3
2016-07-14T09:50:36.138Z,25.23
2016-07-14T09:51:36.150Z,25.4
2016-07-14T09:52:37.559Z,25.45
2016-07-14T09:53:36.873Z,25.4
2016-07-14T09:54:37.572Z,25.28
2016-07-14T09:55:36.871Z,25.06
2016-07-14T09:56:36.877Z,25.23
2016-07-14T09:57:36.881Z,25.36
2016-07-14T09:58:37.841Z,25.36
2016-07-14T09:59:36.892Z,25.25
2016-07-14T10:00:36.953Z,25.18
2016-07-14T10:01:36.906Z,25.28
2016-07-14T10:02:36.201Z,25.06
2016-07-14T10:03:36.916Z,25.03
2016-07-14T10:04:36.925Z,25.1
2016-07-14T10:05:37.640Z,25.25
2016-07-14T10:06:36.927Z,25.35
2016-07-14T10:07:36.931Z,25.36
2016-07-14T10:08:36.231Z,25.43
2016-07-14T10:09:38.358Z,25.23
2016-07-14T10:10:37.006Z,25.43
2016-07-14T10:11:36.958Z,25.45
2016-07-14T10:12:36.307Z,25.27
2016-07-14T10:13:38.793Z,25.18
2016-07-14T10:14:37.681Z,25.39
2016-07-14T10:15:37.685Z,25.4
2016-07-14T10:16:36.984Z,25.35
2016-07-14T10:17:36.988Z,25.3
2016-07-14T10:18:36.996Z,25.3
2016-07-14T10:19:37.000Z,25.27
2016-07-14T10:20:37.004Z,25.24
2016-07-14T10:21:37.717Z,25.39
2016-07-14T10:22:37.467Z,25.4
2016-07-14T10:23:37.731Z,25.36
2016-07-14T10:24:38.956Z,25.4
2016-07-14T10:25:36.324Z,25.42
2016-07-14T10:26:36.332Z,25.39
2016-07-14T10:27:37.042Z,25.42
2016-07-14T10:28:36.344Z,25.42
2016-07-14T10:29:37.058Z,25.4
2016-07-14T10:30:37.059Z,25.45
2016-07-14T10:31:37.069Z,25.5
2016-07-14T10:32:37.074Z,25.47
2016-07-14T10:33:37.072Z,25.45
2016-07-14T10:34:37.789Z,25.47
2016-07-14T10:35:37.106Z,25.57
2016-07-14T10:36:37.093Z,25.69
2016-07-14T10:37:36.394Z,25.67
2016-07-14T10:38:37.110Z,25.58
2016-07-14T10:39:37.823Z,25.5
2016-07-14T10:40:37.120Z,25.47
2016-07-14T10:41:37.843Z,25.43
2016-07-14T10:42:36.425Z,25.38
2016-07-14T10:43:37.851Z,25.45
2016-07-14T10:44:37.783Z,25.27
2016-07-14T10:45:37.148Z,25.36
2016-07-14T10:46:37.150Z,25.33
2016-07-14T10:47:36.451Z,25.18
2016-07-14T10:48:36.456Z,25.23
2016-07-14T10:49:37.168Z,25.21
2016-07-14T10:50:37.175Z,25.13
2016-07-14T10:51:37.179Z,25.21
2016-07-14T10:52:37.183Z,25.38
2016-07-14T10:53:37.896Z,25.38
2016-07-14T10:54:37.193Z,25.4
2016-07-14T10:55:37.543Z,25.35
2016-07-14T10:56:37.910Z,25.36
2016-07-14T10:57:38.892Z,25.33
2016-07-14T10:58:37.217Z,25.23
2016-07-14T10:59:38.178Z,25.45
2016-07-14T11:00:37.227Z,25.36
2016-07-14T11:01:37.229Z,25.36
2016-07-14T11:02:36.531Z,25.27
2016-07-14T11:03:37.245Z,25.36
2016-07-14T11:04:37.956Z,25.3
2016-07-14T11:05:36.550Z,25.38
2016-07-14T11:06:37.769Z,25.25
2016-07-14T11:07:37.970Z,25.32
2016-07-14T11:08:37.271Z,25.39
2016-07-14T11:09:37.983Z,25.28
2016-07-14T11:10:37.588Z,25.39
2016-07-14T11:11:37.998Z,25.39
2016-07-14T11:12:37.603Z,25.36
2016-07-14T11:13:36.590Z,25.4
2016-07-14T11:14:37.303Z,25.28
2016-07-14T11:15:38.017Z,25.4
2016-07-14T11:16:38.021Z,25.42
2016-07-14T11:17:37.329Z,25.43
2016-07-14T11:18:36.616Z,25.42
2016-07-14T11:19:38.969Z,25.45
2016-07-14T11:20:38.042Z,25.5
2016-07-14T11:21:38.962Z,25.4
2016-07-14T11:22:37.348Z,25.45
2016-07-14T11:23:36.644Z,25.39
2016-07-14T11:24:38.255Z,25.14
2016-07-14T11:25:38.082Z,25.08
2016-07-14T11:26:36.659Z,25.2
2016-07-14T11:27:37.375Z,24.99
2016-07-14T11:28:38.084Z,24.87
2016-07-14T11:29:37.381Z,25.02
2016-07-14T11:30:38.097Z,24.98
2016-07-14T11:31:36.688Z,24.9
2016-07-14T11:32:38.017Z,25.02
2016-07-14T11:33:36.693Z,24.96
2016-07-14T11:34:37.534Z,25.06
2016-07-14T11:35:36.702Z,24.99
2016-07-14T11:36:38.276Z,25.1
2016-07-14T11:37:37.421Z,25.14
2016-07-14T11:38:38.133Z,25.13
2016-07-14T11:39:36.734Z,25
2016-07-14T11:40:37.438Z,25
2016-07-14T11:41:37.439Z,25
2016-07-14T11:42:37.449Z,25.09
2016-07-14T11:43:39.280Z,25.09
2016-07-14T11:44:37.455Z,25.08
2016-07-14T11:45:37.510Z,25.09
2016-07-14T11:46:38.177Z,25.03
2016-07-14T11:47:37.472Z,24.8
2016-07-14T11:48:37.478Z,24.88
2016-07-14T11:49:37.486Z,25.02
2016-07-14T11:50:38.193Z,24.9
2016-07-14T11:51:37.491Z,24.98
2016-07-14T11:52:37.495Z,24.8
2016-07-14T11:53:37.497Z,24.69
2016-07-14T11:54:38.007Z,24.88
2016-07-14T11:55:37.508Z,24.78
2016-07-14T11:56:37.255Z,24.67
2016-07-14T11:57:37.516Z,24.47
2016-07-14T11:58:37.524Z,24.76
2016-07-14T11:59:36.819Z,24.68
2016-07-14T12:00:38.236Z,24.64
2016-07-14T12:01:37.531Z,24.76
2016-07-14T12:02:37.536Z,24.47
2016-07-14T12:03:37.542Z,24.34
2016-07-14T12:04:37.541Z,24.46
2016-07-14T12:05:38.404Z,24.22
2016-07-14T12:06:37.550Z,24.37
2016-07-14T12:08:36.854Z,24.34
2016-07-14T12:09:37.573Z,24.3
2016-07-14T12:10:37.568Z,24.43
2016-07-14T12:11:38.276Z,24.35
2016-07-14T12:12:36.868Z,24.47
2016-07-14T12:13:37.627Z,24.47
2016-07-14T12:14:36.872Z,24.35
2016-07-14T12:15:38.294Z,24.53
2016-07-14T12:16:37.681Z,24.69
2016-07-14T12:17:38.297Z,24.69
2016-07-14T12:18:37.596Z,24.53
2016-07-14T12:19:36.892Z,24.37
2016-07-14T12:20:37.651Z,24.37
2016-07-14T12:21:36.902Z,24.25
2016-07-14T12:22:38.320Z,24.28
2016-07-14T12:23:37.615Z,24.39
2016-07-14T12:24:38.329Z,24.49
2016-07-14T12:25:37.627Z,24.46
2016-07-14T12:26:38.342Z,24.5
2016-07-14T12:27:38.837Z,24.45
2016-07-14T12:28:38.338Z,24.5
2016-07-14T12:29:37.642Z,24.52
2016-07-14T12:30:37.645Z,24.73
2016-07-14T12:31:37.649Z,24.9
2016-07-14T12:32:37.654Z,25
2016-07-14T12:33:36.959Z,24.98
2016-07-14T12:34:36.957Z,24.91
2016-07-14T12:35:38.374Z,24.84
2016-07-14T12:36:37.673Z,24.65
2016-07-14T12:37:37.675Z,24.52
2016-07-14T12:38:38.387Z,24.52
2016-07-14T12:39:37.801Z,24.64
2016-07-14T12:40:39.537Z,24.55
2016-07-14T12:41:36.984Z,24.5
2016-07-14T12:42:38.407Z,24.67
2016-07-14T12:43:38.405Z,24.84
2016-07-14T12:44:37.706Z,24.87
2016-07-14T12:45:37.720Z,24.83
2016-07-14T12:46:37.714Z,24.73
2016-07-14T12:47:37.060Z,24.47
2016-07-14T12:48:38.482Z,24.27
2016-07-14T12:49:37.728Z,24.31
2016-07-14T12:50:37.736Z,24.25
2016-07-14T12:51:39.539Z,24.2
2016-07-14T12:52:38.450Z,24.28
2016-07-14T12:53:38.452Z,24.3
2016-07-14T12:54:37.041Z,24.43
2016-07-14T12:55:38.458Z,24.55
2016-07-14T12:56:38.461Z,24.77
2016-07-14T12:57:37.760Z,24.65